1998 Severe Tropical Cyclone THELMA (1998335S12138)


IBTrACS version v04r00. Visit IBTrACS website for data access.
Please direct all questions to the IBTrACS Q and A forum

Storm track - Intensity - Wind Radii - Intensity Data - Source Data - All data

Summary Information

Satellite image near maximum intensity
Storm ID 1998335S12138
Start Nov 30 23Z
Landfall Dec 10 21Z, Dec 11 00Z, Dec 11 03Z, Dec 14 21Z
Max Intensity 140 kt (Dec 8 12Z), 920 mb (Dec 8 11Z)
End Dec 15 06Z
ATCF IDs ,SH061999
Track status Best track data.

Storm track plot

Map of storm track

Intensity plots

Map of storm track

Radial wind information

Map of storm track

Position and Intensity Table

BASIN ISO_TIME_________ NATURE LAT LON WMO WIND WMO PRES USA WIND BOM WIND BOM PRES NEUMANN WIND NEUMANN PRES
degrees north degrees east kts mb kts kts mb kts mb
SP 1998-11-30 23:30:00 NR -12.00 138.00 15 1007 15 1007
SP 1998-12-01 00:00:00 TS -11.99 137.98 15 1006 15 1007
SP 03:00:00 TS -11.90 137.78 15 1005 15
SP 05:30:00 TS -11.83 137.61 15 1004 15 1004 15
SP 06:00:00 TS -11.80 137.58 15 1004 15
SP 09:00:00 TS -11.70 137.38 15 1005 15
SP 11:30:00 TS -11.61 137.22 15 1007 15 1007 15
SP 12:00:00 TS -11.59 137.18 15 1006 15
SP 15:00:00 TS -11.49 136.98 15 1005 15
SP 17:30:00 TS -11.40 136.82 15 1005 15 1005 15
SP 18:00:00 TS -11.39 136.78 15 1005 15
SP 21:00:00 TS -11.28 136.58 15 1006 15
SP 23:30:00 TS -11.21 136.41 15 1007 15 1007 15
SP 1998-12-02 00:00:00 TS -11.19 136.39 15 1006 15 1006
SP 03:00:00 TS -11.12 136.22 15 1005 15
SP 05:30:00 TS -11.06 136.11 15 1005 15 1005 15
SP 06:00:00 TS -11.04 136.09 15 1005 15
SP 09:00:00 TS -10.94 135.99 15 1006 15
SP 11:30:00 TS -10.86 135.91 15 1007 15 1007 15
SP 12:00:00 TS -10.84 135.89 15 1006 15
SP 15:00:00 TS -10.75 135.77 15 1005 15
SP 17:30:00 TS -10.66 135.66 15 1005 15 1005 15
SP 18:00:00 TS -10.64 135.64 15 1005 15
SP 21:00:00 TS -10.50 135.52 15 1006 15
SP 23:30:00 TS -10.41 135.41 15 1007 15 1007 15
SP 1998-12-03 00:00:00 TS -10.39 135.38 15 1006 15 1008
SP 03:00:00 TS -10.34 135.19 15 1005 15
SP 05:30:00 TS -10.30 135.02 15 1004 15 1004 15
SI 06:00:00 TS -10.30 134.99 15 1004 15
SI 09:00:00 TS -10.24 134.83 15 1005 17
SI 11:30:00 TS -10.20 134.71 15 1006 15 1006 19
SI 12:00:00 TS -10.20 134.69 15 1005 20
SI 15:00:00 TS -10.20 134.52 15 1004 20
SI 17:30:00 TS -10.20 134.37 15 1004 15 1004 20
SI 18:00:00 TS -10.20 134.34 15 1004 20
SI 21:00:00 TS -10.10 134.17 15 1005 20
SI 23:30:00 TS -10.01 134.02 15 1006 15 1006 20
SI 1998-12-04 00:00:00 TS -9.86 133.97 25 15 1005 20 1006
SI 03:00:00 TS -9.75 133.74 25 15 1004 20 1005
SI 05:30:00 TS -9.68 133.53 15 1004 25 15 1004 20 1005
SI 06:00:00 TS -9.63 133.49 25 15 1004 20 1005
SI 09:00:00 TS -9.58 133.21 25 17 1004 20 1004
SI 11:30:00 TS -9.54 132.99 20 1004 25 20 1004 20 1004
SI 12:00:00 TS -9.53 132.95 25 20 1003 20 1004
SI 15:00:00 TS -9.49 132.74 25 20 1002 20 1004
SI 17:30:00 TS -9.47 132.59 20 1002 25 20 1002 20 1004
SI 18:00:00 TS -9.46 132.56 25 20 1002 20 1004
SI 21:00:00 TS -9.45 132.39 25 22 1003 20 1004
SI 23:30:00 TS -9.43 132.25 25 1004 25 25 1004 20 1004
SI 1998-12-05 00:00:00 TS -9.43 132.23 25 25 1003 20 1004
SI 03:00:00 TS -9.38 132.08 25 25 1001 22 1002
SI 05:30:00 TS -9.34 131.92 25 1000 25 25 1000 24 1000
SI 06:00:00 TS -9.33 131.88 25 25 1000 25 1000
SI 08:30:00 TS -9.27 131.64 25 1000 25 25 1000 25 1000
SI 09:00:00 TS -9.26 131.60 25 25 1000 25 1000
SI 11:30:00 TS -9.20 131.42 25 1000 25 25 1000 25 1000
SI 12:00:00 TS -9.20 131.39 25 25 999 25 1000
SI 14:30:00 TS -9.19 131.35 25 998 25 25 998 27 998
SI 15:00:00 TS -9.19 131.35 25 25 997 27 998
SI 17:30:00 TS -9.20 131.34 25 996 25 25 996 29 996
SI 18:00:00 TS -9.20 131.33 25 25 996 30 996
SI 20:30:00 TS -9.22 131.31 30 996 27 30 996 32 995
SI 21:00:00 TS -9.24 131.31 27 30 995 32 995
SI 23:30:00 TS -9.29 131.30 30 994 29 30 994 34 994
SI 1998-12-06 00:00:00 TS -9.30 131.30 30 30 993 35 994
SI 02:30:00 TS -9.32 131.30 35 992 36 35 992 37 992
SI 03:00:00 TS -9.32 131.30 37 35 991 37 992
SI 05:30:00 TS -9.33 131.30 40 990 43 40 990 39 990
SI 06:00:00 TS -9.33 131.30 45 40 989 40 990
SI 08:30:00 TS -9.33 131.29 45 985 45 45 985 44 987
SI 09:00:00 TS -9.33 131.28 45 45 985 45 987
SI 11:30:00 TS -9.33 131.24 50 985 45 50 985 49 985
SI 12:00:00 TS -9.33 131.23 45 50 984 50 985
SI 14:30:00 TS -9.34 131.22 50 980 49 50 980 54 982
SI 15:00:00 TS -9.34 131.22 50 50 980 55 982
SI 17:30:00 TS -9.36 131.20 55 980 54 55 980 59 980
SI 18:00:00 TS -9.37 131.20 55 55 979 60 980
SI 20:30:00 TS -9.43 131.18 60 978 57 60 978 64 977
SI 21:00:00 TS -9.44 131.18 57 60 977 65 977
SI 23:30:00 TS -9.52 131.17 65 975 59 65 975 69 975
SI 1998-12-07 00:00:00 TS -9.54 131.17 60 65 975 70 975
SI 02:30:00 TS -9.68 131.19 70 975 72 70 975 72 972
SI 03:00:00 TS -9.72 131.19 75 70 974 72 972
SI 05:30:00 TS -9.91 131.17 75 970 87 75 970 74 970
SI 06:00:00 TS -9.94 131.16 90 75 968 75 970
SI 08:30:00 TS -10.07 131.06 80 960 94 80 960 83 963
SI 09:00:00 TS -10.11 131.03 95 81 959 85 962
SI 11:30:00 TS -10.31 130.89 90 955 99 90 955 93 956
SI 12:00:00 TS -10.35 130.86 100 91 954 95 955
SI 14:30:00 TS -10.56 130.71 100 950 106 100 950 103 950
SI 15:00:00 TS -10.60 130.68 107 100 949 105 950
SI 17:30:00 TS -10.78 130.52 105 945 113 105 945 113 945
SI 18:00:00 TS -10.81 130.48 115 105 945 115 945
SI 20:30:00 TS -10.91 130.23 110 945 119 110 945 117 942
SI 21:00:00 TS -10.92 130.19 120 110 944 117 942
SI 23:30:00 TS -10.98 130.03 110 940 124 110 940 119 940
SI 1998-12-08 00:00:00 TS -11.01 129.99 125 110 939 120 940
SI 02:30:00 TS -11.21 129.82 110 935 122 110 935 122 935
SI 03:00:00 TS -11.25 129.78 122 110 934 122 935
SI 05:30:00 TS -11.42 129.62 115 930 120 115 930 124 930
SI 06:00:00 TS -11.44 129.59 120 115 929 125 930
SI 08:30:00 TS -11.52 129.42 120 925 126 120 925 131 925
SI 09:00:00 TS -11.54 129.39 127 120 924 132 925
SI 11:30:00 TS -11.59 129.22 120 920 133 120 920 138 920
SI 12:00:00 TS -11.61 129.18 135 120 920 140 920
SI 14:30:00 TS -11.66 128.97 120 920 135 120 920 140 920
SI 15:00:00 TS -11.67 128.93 135 120 920 140 920
SI 17:30:00 TS -11.69 128.76 120 920 135 120 920 140 920
SI 18:00:00 TS -11.70 128.72 135 120 920 140 920
SI 20:30:00 TS -11.73 128.57 120 920 132 120 920 140 920
SI 21:00:00 TS -11.74 128.54 132 119 920 140 920
SI 23:30:00 TS -11.82 128.42 115 920 130 115 920 140 920
SI 1998-12-09 00:00:00 TS -11.84 128.39 130 114 920 140 920
SI 02:30:00 TS -11.99 128.22 110 920 130 110 920 135 922
SI 03:00:00 TS -12.02 128.19 130 110 920 135 922
SI 05:30:00 TS -12.15 128.00 110 925 130 110 925 130 924
SI 06:00:00 TS -12.17 127.95 130 110 925 130 925
SI 08:30:00 TS -12.27 127.70 110 925 130 110 925 130 925
SI 09:00:00 TS -12.29 127.65 130 110 925 130 925
SI 11:30:00 TS -12.42 127.40 110 925 130 110 925 130 925
SI 12:00:00 TS -12.44 127.35 130 110 925 130 925
SI 14:30:00 TS -12.61 127.12 110 925 130 110 925 127 927
SI 15:00:00 TS -12.65 127.08 130 110 925 127 927
SI 17:30:00 TS -12.81 126.89 110 930 130 110 930 125 929
SI 18:00:00 TS -12.84 126.86 130 110 930 125 930
SI 20:30:00 TS -12.93 126.69 110 930 130 110 930 125 930
SI 21:00:00 TS -12.94 126.65 130 110 930 125 930
SI 23:30:00 TS -13.02 126.46 110 930 130 110 930 125 930
SI 1998-12-10 00:00:00 TS -13.04 126.42 130 110 930 125 930
SI 02:30:00 TS -13.18 126.21 110 930 127 110 930 122 932
SI 03:00:00 TS -13.22 126.17 127 110 930 122 932
SI 05:30:00 TS -13.38 125.99 110 935 125 110 935 120 934
SI 06:00:00 TS -13.41 125.95 125 110 935 120 935
SI 08:30:00 TS -13.58 125.80 110 935 125 110 935 120 935
SI 09:00:00 TS -13.61 125.77 125 108 935 120 935
SI 11:30:00 TS -13.80 125.65 100 935 125 100 935 120 935
SI 12:00:00 TS -13.85 125.63 125 100 936 120 935
SI 14:30:00 TS -14.09 125.48 100 945 122 100 945 113 941
SI 15:00:00 TS -14.14 125.44 122 98 945 112 942
SI 17:30:00 TS -14.40 125.25 90 950 120 90 950 106 948
SI 18:00:00 TS -14.45 125.23 120 87 951 105 950
SI 20:30:00 TS -14.71 125.18 75 960 117 75 960 92 958
SI 21:00:00 TS -14.76 125.16 117 73 961 90 960
SI 23:30:00 TS -15.03 125.11 65 970 115 65 970 77 968
SI 1998-12-11 00:00:00 TS -15.09 125.09 115 64 970 75 970
SI 02:30:00 TS -15.43 125.03 60 975 104 60 975 68 974
SI 03:00:00 TS -15.49 125.03 102 58 975 67 975
SI 05:30:00 TS -15.76 125.00 50 980 92 50 980 61 979
SI 06:00:00 TS -15.82 125.00 90 49 980 60 980
SI 08:30:00 TS -16.06 124.99 45 985 79 45 985 51 984
SI 09:00:00 TS -16.10 124.99 77 43 985 50 985
SI 11:30:00 TS -16.30 124.97 35 990 67 35 990 41 989
SI 12:00:00 TS -16.34 124.97 65 34 990 40 990
SI 14:30:00 TS -16.56 124.91 30 995 56 30 995 40 991
SI 15:00:00 TS -16.61 124.90 55 29 995 40 992
SI 18:00:00 TS -16.90 124.77 25 996 45 25 996 40 994
SI 21:00:00 TS -17.13 124.71 42 25 40 996
SI 1998-12-12 00:00:00 TS -17.33 124.67 25 40 25 40 998
SI 03:00:00 TS -17.56 124.57 37 25 40 997
SI 06:00:00 TS -17.77 124.43 25 35 25 40 997
SI 09:00:00 TS -17.96 124.27 35 25 40 997
SI 12:00:00 TS -18.13 124.07 25 35 25 40 997
SI 15:00:00 TS -18.30 123.86 37 25 40 997
SI 18:00:00 TS -18.47 123.60 25 40 25 40 997
SI 21:00:00 TS -18.63 123.25 40 25 37 997
SI 1998-12-13 00:00:00 TS -18.77 122.90 25 40 25 35 997
SI 03:00:00 TS -18.83 122.66 37 25 35
SI 06:00:00 TS -18.87 122.43 25 35 25 35
SI 09:00:00 TS -18.95 122.13 35 25 35
SI 12:00:00 TS -19.03 121.83 25 35 25 35
SI 15:00:00 TS -19.11 121.58 35 25 32
SI 18:00:00 TS -19.20 121.37 25 35 25 30 995
SI 21:00:00 TS -19.32 121.17 35 25 30 995
SI 1998-12-14 00:00:00 TS -19.43 120.97 25 35 25 30 995
SI 03:00:00 TS -19.50 120.71 35 25 27 995
SI 06:00:00 TS -19.57 120.43 25 35 25 25 995
SI 09:00:00 TS -19.66 120.11 35 25 25 995
SI 12:00:00 TS -19.77 119.83 25 35 25 25 995
SI 15:00:00 TS -19.88 119.66 35 25 25 995
SI 18:00:00 TS -20.04 119.58 25 35 25 25 995
SI 21:00:00 TS -20.21 119.53 35 25 22
SI 1998-12-15 00:00:00 TS -20.40 119.50 25 35 25 20
SI 03:00:00 NR -20.60 119.51 32
SI 06:00:00 NR -21.00 119.40 30

Source Information

Agency Information
USA bsh061999.txt
TOKYO
CMA
HKO
NEWDELHI
REUNION
BOM IDCKMSTM0S.csv:Line=19898:THELMA
NADI
WELLINGTON
DS824
TD9636
TD9635
NEUMANN tracks.sh:Storm=1145:THELMA:BSH061999:G.Garden,
MLC

All available IBTrACS Data

SEASON BASIN SUBBASIN ISO_TIME_________ NATURE LAT LON WMO WIND WMO PRES WMO AGENCY DIST2LAND LANDFALL IFLAG USA AGENCY USA ATCF_ID USA LAT USA LON USA WIND USA SSHS BOM LAT BOM LON BOM TYPE BOM WIND BOM PRES BOM CI BOM ROCI BOM POCI BOM EYE BOM POS_METHOD BOM PRES_METHOD NEUMANN LAT NEUMANN LON NEUMANN CLASS NEUMANN WIND NEUMANN PRES STORM SPEED STORM DIR
Year degrees north degrees east kts mb km km degrees north degrees east kts 1 degrees north degrees east kts mb 1 nmile mb nmile degrees north degrees east kts mb kts degrees
1999 SP EA 1998-11-30 23:30:00 NR -12.00 138.00 15 1007 bom 113 113 ______O_______ -1 -12.00 138.00 20 15 1007 3 3 0
1999 SP EA 1998-12-01 00:00:00 TS -11.99 137.98 113 97 ______P_____O_ -1 -11.99 137.97 20 15 1006 -12.00 138.00 TC 15 1007 4 294
1999 SP EA 03:00:00 TS -11.90 137.78 97 86 ______P_____P_ -1 -11.94 137.77 20 15 1005 -11.86 137.80 TC 15 4 295
1999 SP EA 05:30:00 TS -11.83 137.61 15 1004 bom 86 86 ______O_____P_ -1 -11.90 137.60 20 15 1004 3 -11.73 137.63 TC 15 4 299
1999 SP EA 06:00:00 TS -11.80 137.58 86 78 ______P_____O_ -1 -11.89 137.57 20 15 1004 -11.70 137.60 TC 15 4 300
1999 SP EA 09:00:00 TS -11.70 137.38 80 74 ______P_____P_ -1 -11.86 137.37 20 15 1005 -11.53 137.40 TC 15 4 298
1999 SP EA 11:30:00 TS -11.61 137.22 15 1007 bom 81 81 ______O_____P_ -1 -11.80 137.20 20 15 1007 3 -11.42 137.23 TC 15 4 298
1999 SP EA 12:00:00 TS -11.59 137.18 81 78 ______P_____O_ -1 -11.78 137.17 20 15 1006 -11.40 137.20 TC 15 4 298
1999 SP EA 15:00:00 TS -11.49 136.98 78 70 ______P_____P_ -1 -11.64 136.97 20 15 1005 -11.33 137.00 TC 15 4 298
1999 SP EA 17:30:00 TS -11.40 136.82 15 1005 bom 74 74 ______O_____P_ -1 -11.50 136.80 20 15 1005 3 -11.31 136.83 TC 15 4 297
1999 SP EA 18:00:00 TS -11.39 136.78 74 70 ______P_____O_ -1 -11.47 136.77 20 15 1005 -11.30 136.80 TC 15 5 297
1999 SP EA 21:00:00 TS -11.28 136.58 79 78 ______P_____P_ -1 -11.31 136.56 20 15 1006 -11.26 136.59 TC 15 4 297
1999 SP EA 23:30:00 TS -11.21 136.41 15 1007 bom 90 90 ______O_____P_ -1 -11.20 136.40 20 15 1007 3 -11.21 136.43 TC 15 4 296
1999 SP EA 1998-12-02 00:00:00 TS -11.19 136.39 90 90 ______P_____O_ -1 -11.19 136.37 20 15 1006 -11.20 136.40 TC 15 1006 4 294
1999 SP EA 03:00:00 TS -11.12 136.22 105 105 ______P_____P_ -1 -11.14 136.21 20 15 1005 -11.11 136.24 TC 15 3 296
1999 SP EA 05:30:00 TS -11.06 136.11 15 1005 bom 109 109 ______O_____P_ -1 -11.10 136.10 20 15 1005 3 -11.02 136.12 TC 15 3 301
1999 SP EA 06:00:00 TS -11.04 136.09 120 120 ______P_____O_ -1 -11.09 136.08 20 15 1005 -11.00 136.10 TC 15 3 314
1999 SP EA 09:00:00 TS -10.94 135.99 134 134 ______P_____P_ -1 -10.99 135.98 20 15 1006 -10.90 136.00 TC 15 3 316
1999 SP EA 11:30:00 TS -10.86 135.91 15 1007 bom 134 134 ______O_____P_ -1 -10.90 135.90 20 15 1007 3 -10.82 135.92 TC 15 3 316
1999 SP EA 12:00:00 TS -10.84 135.89 146 145 ______P_____O_ -1 -10.88 135.88 20 15 1006 -10.80 135.90 TC 15 3 310
1999 SP EA 15:00:00 TS -10.75 135.77 156 156 ______P_____P_ -1 -10.79 135.79 20 15 1005 -10.70 135.75 TC 15 3 309
1999 SP EA 17:30:00 TS -10.66 135.66 15 1005 bom 156 156 ______O_____P_ -1 -10.70 135.70 20 15 1005 3 -10.62 135.62 TC 15 3 310
1999 SP EA 18:00:00 TS -10.64 135.64 167 167 ______P_____O_ -1 -10.68 135.68 20 15 1005 -10.60 135.60 TC 15 4 319
1999 SP EA 21:00:00 TS -10.50 135.52 179 179 ______P_____P_ -1 -10.52 135.54 20 15 1006 -10.49 135.51 TC 15 4 316
1999 SP EA 23:30:00 TS -10.41 135.41 15 1007 bom 191 191 ______O_____P_ -1 -10.40 135.40 20 15 1007 3 -10.41 135.42 TC 15 4 309
1999 SP EA 1998-12-03 00:00:00 TS -10.39 135.38 191 191 ______P_____O_ -1 -10.38 135.37 20 15 1006 -10.40 135.40 TC 15 1008 4 288
1999 SP EA 03:00:00 TS -10.34 135.19 206 202 ______P_____P_ -1 -10.33 135.17 20 15 1005 -10.34 135.21 TC 15 4 284
1999 SP EA 05:30:00 TS -10.30 135.02 15 1004 bom 202 202 ______O_____P_ -1 -10.30 135.00 20 15 1004 3 -10.31 135.03 TC 15 4 281
1999 SI WA 06:00:00 TS -10.30 134.99 202 201 ______P_____O_ -1 -10.29 134.97 20 15 1004 -10.30 135.00 TC 15 3 290
1999 SI WA 09:00:00 TS -10.24 134.83 209 204 ______P_____P_ -1 -10.24 134.82 20 15 1005 -10.23 134.85 TC 17 3 289
1999 SI WA 11:30:00 TS -10.20 134.71 15 1006 bom 204 204 ______O_____P_ -1 -10.20 134.70 20 15 1006 3 -10.20 134.73 TC 19 3 287
1999 SI WA 12:00:00 TS -10.20 134.69 204 194 ______P_____O_ -1 -10.19 134.68 20 15 1005 -10.20 134.70 TC 20 3 269
1999 SI WA 15:00:00 TS -10.20 134.52 194 190 ______P_____P_ -1 -10.14 134.53 20 15 1004 -10.27 134.50 TC 20 3 269
1999 SI WA 17:30:00 TS -10.20 134.37 15 1004 bom 190 187 ______O_____P_ -1 -10.10 134.40 20 15 1004 3 -10.30 134.33 TC 20 4 272
1999 SI WA 18:00:00 TS -10.20 134.34 187 184 ______P_____O_ -1 -10.09 134.37 20 15 1004 -10.30 134.30 TC 20 4 297
1999 SI WA 21:00:00 TS -10.10 134.17 195 188 ______P_____P_ -1 -10.04 134.18 20 15 1005 -10.16 134.16 TC 20 4 300
1999 SI WA 23:30:00 TS -10.01 134.02 15 1006 bom 197 197 ______O_____P_ -1 -10.00 134.00 20 15 1006 3 -10.02 134.03 TC 20 6 321
1999 SI WA 1998-12-04 00:00:00 TS -9.86 133.97 206 206 O_____P_____O_ jtwc_sh SH061999 -8.80 133.90 25 -1 -9.99 133.96 20 15 1005 -10.00 134.00 TC 20 1006 7 314
1999 SI WA 03:00:00 TS -9.75 133.74 199 199 P_____P_____P_ SH061999 -8.97 133.73 25 -1 -9.95 133.71 20 15 1004 -9.94 133.77 TC 20 1005 5 293
1999 SI WA 05:30:00 TS -9.68 133.53 15 1004 bom 201 201 P_____O_____P_ SH061999 -9.08 133.54 25 -1 -9.90 133.50 20 15 1004 3 -9.91 133.54 TC 20 1005 6 296
1999 SI WA 06:00:00 TS -9.63 133.49 212 204 O_____P_____I_ jtwc_sh SH061999 -9.10 133.50 25 -1 -9.89 133.46 20 15 1004 -9.90 133.50 TC 20 1005 6 287
1999 SI WA 09:00:00 TS -9.58 133.21 204 199 P_____P_____P_ SH061999 -9.17 133.20 25 -1 -9.78 133.20 20 17 1004 -9.80 133.24 TC 20 1004 5 281
1999 SI WA 11:30:00 TS -9.54 132.99 20 1004 bom 205 205 P_____O_____P_ SH061999 -9.20 132.95 25 -1 -9.70 133.00 20 20 1004 1.00 3 -9.71 133.04 TC 20 1004 5 282
1999 SI WA 12:00:00 TS -9.53 132.95 205 198 O_____P_____O_ jtwc_sh SH061999 -9.20 132.90 25 -1 -9.69 132.96 20 20 1003 -9.70 133.00 TC 20 1004 4 280
1999 SI WA 15:00:00 TS -9.49 132.74 195 193 P_____P_____P_ SH061999 -9.20 132.68 25 -1 -9.64 132.75 20 20 1002 -9.64 132.79 TC 20 1004 4 280
1999 SI WA 17:30:00 TS -9.47 132.59 20 1002 bom 193 193 P_____O_____P_ SH061999 -9.20 132.53 25 -1 -9.60 132.60 20 20 1002 1.00 3 -9.61 132.63 TC 20 1004 4 279
1999 SI WA 18:00:00 TS -9.46 132.56 193 190 O_____P_____I_ jtwc_sh SH061999 -9.20 132.50 25 -1 -9.59 132.57 20 20 1002 -9.60 132.60 TC 20 1004 3 275
1999 SI WA 21:00:00 TS -9.45 132.39 198 191 P_____P_____P_ SH061999 -9.24 132.30 25 -1 -9.55 132.42 20 22 1003 -9.56 132.44 TC 20 1004 3 276
1999 SI WA 23:30:00 TS -9.43 132.25 25 1004 bom 191 185 P_____O_____P_ SH061999 -9.29 132.13 25 -1 -9.50 132.30 20 25 1004 1.50 1010 3 -9.51 132.32 TC 20 1004 3 278
1999 SI WA 1998-12-05 00:00:00 TS -9.43 132.23 185 179 O_____P_____O_ jtwc_sh SH061999 -9.30 132.10 25 -1 -9.49 132.28 20 25 1003 -9.50 132.30 TC 20 1004 3 286
1999 SI WA 03:00:00 TS -9.38 132.08 179 159 P_____P_____P_ SH061999 -9.36 131.88 25 -1 -9.39 132.18 20 25 1001 -9.41 132.18 TC 22 1002 3 287
1999 SI WA 05:30:00 TS -9.34 131.92 25 1000 bom 159 159 P_____O_____P_ SH061999 -9.40 131.72 25 -1 -9.30 132.00 20 25 1000 1.50 3 6 -9.32 132.04 TC 24 1000 4 286
1999 SI WA 06:00:00 TS -9.33 131.88 159 152 O_____P_____O_ jtwc_sh SH061999 -9.40 131.70 25 -1 -9.28 131.94 20 25 1000 -9.30 132.00 TC 25 1000 6 284
1999 SI WA 08:30:00 TS -9.27 131.64 25 1000 bom 149 149 P_____O_____P_ SH061999 -9.41 131.63 25 -1 -9.20 131.60 20 25 1000 1.50 3 6 -9.20 131.70 TC 25 1000 6 284
1999 SI WA 09:00:00 TS -9.26 131.60 149 134 P_____P_____P_ SH061999 -9.41 131.63 25 -1 -9.18 131.54 20 25 1000 -9.19 131.63 TC 25 1000 5 286
1999 SI WA 11:30:00 TS -9.20 131.42 25 1000 bom 134 134 P_____O_____P_ SH061999 -9.40 131.60 25 -1 -9.10 131.30 20 25 1000 1.50 3 6 -9.11 131.34 TC 25 1000 4 287
1999 SI WA 12:00:00 TS -9.20 131.39 134 134 O_____P_____O_ jtwc_sh SH061999 -9.40 131.60 25 -1 -9.09 131.28 20 25 999 -9.10 131.30 TC 25 1000 1 284
1999 SI WA 14:30:00 TS -9.19 131.35 25 998 bom 134 134 P_____O_____P_ SH061999 -9.39 131.56 25 -1 -9.10 131.30 20 25 998 2.00 3 6 -9.08 131.20 TC 27 998 1 282
1999 SI WA 15:00:00 TS -9.19 131.35 134 134 P_____P_____P_ SH061999 -9.39 131.55 25 -1 -9.10 131.30 20 25 997 -9.08 131.20 TC 27 998 0 0
1999 SI WA 17:30:00 TS -9.20 131.34 25 996 bom 134 134 P_____O_____P_ SH061999 -9.40 131.51 25 -1 -9.10 131.30 20 25 996 2.00 3 6 -9.09 131.20 TC 29 996 0 0
1999 SI WA 18:00:00 TS -9.20 131.33 134 134 O_____P_____O_ jtwc_sh SH061999 -9.40 131.50 25 -1 -9.10 131.30 20 25 996 -9.10 131.20 TC 30 996 1 0
1999 SI WA 20:30:00 TS -9.22 131.31 30 996 bom 134 134 P_____O_____P_ SH061999 -9.43 131.46 27 -1 -9.10 131.30 20 30 996 2.50 3 6 -9.14 131.19 TC 32 995 1 204
1999 SI WA 21:00:00 TS -9.24 131.31 134 134 P_____P_____P_ SH061999 -9.44 131.45 27 -1 -9.11 131.30 20 30 995 -9.15 131.18 TC 32 995 1 0
1999 SI WA 23:30:00 TS -9.29 131.30 30 994 bom 145 145 P_____O_____P_ SH061999 -9.49 131.41 29 -1 -9.20 131.30 20 30 994 2.50 1008 3 6 -9.19 131.20 TC 34 994 1 194
1999 SI WA 1998-12-06 00:00:00 TS -9.30 131.30 145 145 O_____P_____O_ jtwc_sh SH061999 -9.50 131.40 30 -1 -9.21 131.30 20 30 993 -9.20 131.20 TC 35 994 0 0
1999 SI WA 02:30:00 TS -9.32 131.30 35 992 bom 145 145 P_____O_____P_ SH061999 -9.55 131.35 36 0 -9.20 131.30 30 35 992 3.00 3 6 -9.21 131.25 TC 37 992 0 0
1999 SI WA 03:00:00 TS -9.32 131.30 145 145 P_____P_____P_ SH061999 -9.56 131.34 37 0 -9.20 131.30 30 35 991 -9.21 131.26 TC 37 992 0 0
1999 SI WA 05:30:00 TS -9.33 131.30 40 990 bom 145 145 P_____O_____P_ SH061999 -9.60 131.30 43 0 -9.20 131.30 30 40 990 3.00 139 4 6 -9.20 131.30 TC 39 990 0 0
1999 SI WA 06:00:00 TS -9.33 131.30 145 145 O_____P_____O_ jtwc_sh SH061999 -9.60 131.30 45 0 -9.20 131.30 30 40 989 130 -9.20 131.30 TC 40 990 0 0
1999 SI WA 08:30:00 TS -9.33 131.29 45 985 bom 145 145 P_____O_____P_ SH061999 -9.60 131.30 45 0 -9.20 131.30 30 45 985 3.00 90 4 6 -9.20 131.27 TC 44 987 0 0
1999 SI WA 09:00:00 TS -9.33 131.28 145 145 P_____P_____P_ SH061999 -9.60 131.30 45 0 -9.20 131.29 30 45 985 98 -9.20 131.26 TC 45 987 1 271
1999 SI WA 11:30:00 TS -9.33 131.24 50 985 bom 145 145 P_____O_____P_ SH061999 -9.60 131.30 45 0 -9.20 131.20 30 50 985 3.50 139 4 6 -9.20 131.21 TC 49 985 1 270
1999 SI WA 12:00:00 TS -9.33 131.23 145 145 O_____P_____O_ jtwc_sh SH061999 -9.60 131.30 45 0 -9.20 131.19 30 50 984 140 -9.20 131.20 TC 50 985 0 0
1999 SI WA 14:30:00 TS -9.34 131.22 50 980 bom 145 145 P_____O_____P_ SH061999 -9.63 131.27 49 0 -9.20 131.20 30 50 980 3.50 150 18 4 6 -9.19 131.19 TC 54 982 0 0
1999 SI WA 15:00:00 TS -9.34 131.22 145 145 P_____P_____P_ SH061999 -9.64 131.26 50 0 -9.20 131.20 30 50 980 148 -9.18 131.19 TC 55 982 1 0
1999 SI WA 17:30:00 TS -9.36 131.20 55 980 bom 156 156 P_____O_____P_ SH061999 -9.69 131.21 54 0 -9.20 131.20 30 55 980 4.00 139 16 4 6 -9.19 131.20 TC 59 980 1 224
1999 SI WA 18:00:00 TS -9.37 131.20 156 156 O_____P_____O_ jtwc_sh SH061999 -9.70 131.20 55 0 -9.21 131.20 30 55 979 140 -9.20 131.20 TC 60 980 1 195
1999 SI WA 20:30:00 TS -9.43 131.18 60 978 bom 156 156 P_____O_____P_ SH061999 -9.74 131.16 57 0 -9.30 131.20 30 60 978 4.00 150 16 4 6 -9.25 131.19 TC 64 977 1 0
1999 SI WA 21:00:00 TS -9.44 131.18 156 156 P_____P_____P_ SH061999 -9.74 131.15 57 0 -9.31 131.20 30 60 977 148 -9.26 131.19 TC 65 977 2 0
1999 SI WA 23:30:00 TS -9.52 131.17 65 975 bom 168 168 P_____O_____P_ SH061999 -9.79 131.11 59 0 -9.40 131.20 40 65 975 4.50 139 1008 14 4 6 -9.37 131.19 TC 69 975 2 193
1999 SI WA 1998-12-07 00:00:00 TS -9.54 131.17 168 168 O_____P_____O_ jtwc_sh SH061999 -9.80 131.10 60 0 -9.43 131.20 40 65 975 137 -9.40 131.20 TC 70 975 3 0
1999 SI WA 02:30:00 TS -9.68 131.19 70 975 bom 179 179 P_____O_____P_ SH061999 -9.86 131.06 72 1 -9.60 131.20 40 70 975 4.50 130 11 4 6 -9.59 131.31 TC 72 972 4 0
1999 SI WA 03:00:00 TS -9.72 131.19 179 156 P_____P_____P_ SH061999 -9.88 131.06 75 1 -9.65 131.19 40 70 974 133 -9.63 131.34 TC 72 972 5 184
1999 SI WA 05:30:00 TS -9.91 131.17 75 970 bom 156 156 P_____O_____P_ SH061999 -9.98 131.01 87 2 -9.90 131.10 40 75 970 4.50 150 9 4 6 -9.86 131.40 TC 74 970 4 190
1999 SI WA 06:00:00 TS -9.94 131.16 156 134 O_____P_____O_ jtwc_sh SH061999 -10.00 131.00 90 2 -9.92 131.08 40 75 968 141 -9.90 131.40 TC 75 970 4 215
1999 SI WA 08:30:00 TS -10.07 131.06 80 960 bom 134 134 P_____O_____P_ SH061999 -10.15 130.93 94 2 -10.00 131.00 40 80 960 5.00 99 9 4 6 -10.07 131.24 TC 83 963 4 217
1999 SI WA 09:00:00 TS -10.11 131.03 134 114 P_____P_____P_ SH061999 -10.18 130.92 95 2 -10.04 130.99 40 81 959 97 -10.10 131.20 TC 85 962 6 215
1999 SI WA 11:30:00 TS -10.31 130.89 90 955 bom 114 114 P_____O_____P_ SH061999 -10.36 130.82 99 3 -10.30 130.90 40 90 955 5.50 90 8 4 6 -10.26 130.95 TC 93 956 6 216
1999 SI WA 12:00:00 TS -10.35 130.86 103 79 O_____P_____O_ jtwc_sh SH061999 -10.40 130.80 100 3 -10.35 130.87 40 91 954 96 -10.30 130.90 TC 95 955 6 215
1999 SI WA 14:30:00 TS -10.56 130.71 100 950 bom 79 79 P_____O_____P_ SH061999 -10.57 130.70 106 3 -10.60 130.70 40 100 950 6.00 130 9 4 6 -10.53 130.73 TC 103 950 6 214
1999 SI WA 15:00:00 TS -10.60 130.68 79 56 P_____P_____P_ SH061999 -10.60 130.67 107 3 -10.64 130.67 40 100 949 130 -10.57 130.70 TC 105 950 6 220
1999 SI WA 17:30:00 TS -10.78 130.52 105 945 bom 56 56 P_____O_____P_ SH061999 -10.77 130.53 113 4 -10.80 130.50 40 105 945 6.00 130 10 4 6 -10.77 130.54 TC 113 945 6 224
1999 SI WA 18:00:00 TS -10.81 130.48 56 46 O_____P_____O_ jtwc_sh SH061999 -10.80 130.50 115 4 -10.83 130.44 40 105 945 130 -10.80 130.50 TC 115 945 6 246
1999 SI WA 20:30:00 TS -10.91 130.23 110 945 bom 55 55 P_____O_____P_ SH061999 -10.97 130.30 119 4 -10.90 130.10 40 110 945 6.50 130 9 4 6 -10.85 130.29 TC 117 942 6 249
1999 SI WA 21:00:00 TS -10.92 130.19 55 46 P_____P_____P_ SH061999 -11.01 130.26 120 4 -10.90 130.07 40 110 944 131 -10.85 130.25 TC 117 942 4 249
1999 SI WA 23:30:00 TS -10.98 130.03 110 940 bom 49 49 P_____O_____P_ SH061999 -11.17 130.04 124 4 -10.90 130.00 40 110 940 6.50 139 1008 9 4 6 -10.88 130.04 TC 119 940 4 245
1999 SI WA 1998-12-08 00:00:00 TS -11.01 129.99 49 39 O_____P_____O_ jtwc_sh SH061999 -11.20 130.00 125 4 -10.94 129.97 40 110 939 140 -10.90 130.00 TC 120 940 6 222
1999 SI WA 02:30:00 TS -11.21 129.82 110 935 bom 46 46 P_____O_____P_ SH061999 -11.35 129.83 122 4 -11.20 129.80 40 110 935 6.50 150 8 4 6 -11.10 129.83 TC 122 935 6 220
1999 SI WA 03:00:00 TS -11.25 129.78 39 39 P_____P_____P_ SH061999 -11.37 129.79 122 4 -11.24 129.77 40 110 934 150 -11.14 129.79 TC 122 935 6 223
1999 SI WA 05:30:00 TS -11.42 129.62 115 930 bom 55 55 P_____O_____P_ SH061999 -11.48 129.63 120 4 -11.40 129.60 40 115 930 6.50 150 7 4 6 -11.36 129.63 TC 124 930 5 225
1999 SI WA 06:00:00 TS -11.44 129.59 55 54 O_____P_____O_ jtwc_sh SH061999 -11.50 129.60 120 4 -11.42 129.57 40 115 929 144 -11.40 129.60 TC 125 930 4 241
1999 SI WA 08:30:00 TS -11.52 129.42 120 925 bom 76 76 P_____O_____P_ SH061999 -11.56 129.43 126 4 -11.50 129.40 40 120 925 7.00 119 4 4 6 -11.51 129.44 TC 131 925 4 244
1999 SI WA 09:00:00 TS -11.54 129.39 76 76 P_____P_____P_ SH061999 -11.56 129.40 127 4 -11.52 129.37 40 120 924 115 -11.53 129.41 TC 132 925 4 250
1999 SI WA 11:30:00 TS -11.59 129.22 120 920 bom 98 98 P_____O_____P_ SH061999 -11.59 129.23 133 4 -11.60 129.20 40 120 920 7.00 99 4 4 6 -11.59 129.24 TC 138 920 4 251
1999 SI WA 12:00:00 TS -11.61 129.18 98 98 O_____P_____O_ jtwc_sh SH061999 -11.60 129.20 135 4 -11.62 129.15 40 120 920 99 -11.60 129.20 TC 140 920 5 255
1999 SI WA 14:30:00 TS -11.66 128.97 120 920 bom 120 120 P_____O_____P_ SH061999 -11.64 129.03 135 4 -11.70 128.90 40 120 920 7.00 99 3 4 6 -11.65 128.99 TC 140 920 5 256
1999 SI WA 15:00:00 TS -11.67 128.93 131 131 P_____P_____P_ SH061999 -11.64 129.00 135 4 -11.71 128.86 40 120 920 104 -11.66 128.94 TC 140 920 4 261
1999 SI WA 17:30:00 TS -11.69 128.76 120 920 bom 142 142 P_____O_____P_ SH061999 -11.69 128.83 135 4 -11.70 128.70 40 120 920 7.00 130 3 4 6 -11.69 128.74 TC 140 920 4 262
1999 SI WA 18:00:00 TS -11.70 128.72 152 152 O_____P_____O_ jtwc_sh SH061999 -11.70 128.80 135 4 -11.70 128.66 40 120 920 131 -11.70 128.70 TC 140 920 4 259
1999 SI WA 20:30:00 TS -11.73 128.57 120 920 bom 163 163 P_____O_____P_ SH061999 -11.76 128.64 132 4 -11.70 128.50 40 120 920 7.00 139 4 4 6 -11.73 128.57 TC 140 920 4 257
1999 SI WA 21:00:00 TS -11.74 128.54 174 174 P_____P_____P_ SH061999 -11.78 128.61 132 4 -11.71 128.48 40 119 920 139 -11.73 128.54 TC 140 920 3 238
1999 SI WA 23:30:00 TS -11.82 128.42 115 920 bom 185 185 P_____O_____P_ SH061999 -11.88 128.44 130 4 -11.80 128.40 40 115 920 7.00 139 1008 4 4 6 -11.78 128.43 TC 140 920 4 235
1999 SI WA 1998-12-09 00:00:00 TS -11.84 128.39 185 185 O_____P_____O_ jtwc_sh SH061999 -11.90 128.40 130 4 -11.83 128.37 40 114 920 139 -11.80 128.40 TC 140 920 5 229
1999 SI WA 02:30:00 TS -11.99 128.22 110 920 bom 208 208 P_____O_____P_ SH061999 -12.06 128.21 130 4 -12.00 128.20 40 110 920 7.00 139 4 4 6 -11.91 128.25 TC 135 922 5 229
1999 SI WA 03:00:00 TS -12.02 128.19 208 208 P_____P_____P_ SH061999 -12.10 128.17 130 4 -12.02 128.17 40 110 920 134 -11.93 128.22 TC 135 922 5 235
1999 SI WA 05:30:00 TS -12.15 128.00 110 925 bom 213 204 P_____O_____P_ SH061999 -12.27 127.95 130 4 -12.10 128.00 40 110 925 7.00 110 4 4 6 -12.07 128.04 TC 130 924 6 236
1999 SI WA 06:00:00 TS -12.17 127.95 204 180 O_____P_____O_ jtwc_sh SH061999 -12.30 127.90 130 4 -12.11 127.96 40 110 925 113 -12.10 128.00 TC 130 925 6 247
1999 SI WA 08:30:00 TS -12.27 127.70 110 925 bom 180 180 P_____O_____P_ SH061999 -12.39 127.65 130 4 -12.20 127.70 40 110 925 7.00 130 4 4 6 -12.22 127.76 TC 130 925 6 248
1999 SI WA 09:00:00 TS -12.29 127.65 180 160 P_____P_____P_ SH061999 -12.40 127.60 130 4 -12.23 127.65 40 110 925 128 -12.24 127.71 TC 130 925 7 243
1999 SI WA 11:30:00 TS -12.42 127.40 110 925 bom 160 160 P_____O_____P_ SH061999 -12.48 127.35 130 4 -12.40 127.40 40 110 925 7.00 119 3 4 6 -12.37 127.45 TC 130 925 7 242
1999 SI WA 12:00:00 TS -12.44 127.35 158 134 O_____P_____O_ jtwc_sh SH061999 -12.50 127.30 130 4 -12.43 127.35 40 110 925 119 -12.40 127.40 TC 130 925 7 234
1999 SI WA 14:30:00 TS -12.61 127.12 110 925 bom 134 134 P_____O_____P_ SH061999 -12.66 127.07 130 4 -12.60 127.10 40 110 925 6.50 119 3 4 6 -12.57 127.18 TC 127 927 7 232
1999 SI WA 15:00:00 TS -12.65 127.08 134 111 P_____P_____P_ SH061999 -12.70 127.03 130 4 -12.64 127.06 40 110 925 117 -12.61 127.14 TC 127 927 6 227
1999 SI WA 17:30:00 TS -12.81 126.89 110 930 bom 111 111 P_____O_____P_ SH061999 -12.87 126.83 130 4 -12.80 126.90 40 110 930 6.50 110 4 4 6 -12.77 126.94 TC 125 929 6 228
1999 SI WA 18:00:00 TS -12.84 126.86 111 101 O_____P_____O_ jtwc_sh SH061999 -12.90 126.80 130 4 -12.82 126.87 40 110 930 111 -12.80 126.90 TC 125 930 5 241
1999 SI WA 20:30:00 TS -12.93 126.69 110 930 bom 103 103 P_____O_____P_ SH061999 -12.99 126.67 130 4 -12.90 126.70 40 110 930 6.50 119 4 4 6 -12.89 126.69 TC 125 930 5 244
1999 SI WA 21:00:00 TS -12.94 126.65 105 95 P_____P_____P_ SH061999 -13.01 126.64 130 4 -12.91 126.66 40 110 930 122 -12.90 126.65 TC 125 930 5 247
1999 SI WA 23:30:00 TS -13.02 126.46 110 930 bom 99 99 P_____O_____P_ SH061999 -13.08 126.53 130 4 -13.00 126.40 40 110 930 6.50 139 1008 4 4 6 -12.98 126.44 TC 125 930 5 246
1999 SI WA 1998-12-10 00:00:00 TS -13.04 126.42 104 90 O_____P_____O_ jtwc_sh SH061999 -13.10 126.50 130 4 -13.03 126.35 40 110 930 139 -13.00 126.40 TC 125 930 6 236
1999 SI WA 02:30:00 TS -13.18 126.21 110 930 bom 90 90 P_____O_____P_ SH061999 -13.20 126.34 127 4 -13.20 126.10 40 110 930 6.50 139 4 4 6 -13.15 126.18 TC 122 932 6 234
1999 SI WA 03:00:00 TS -13.22 126.17 90 68 P_____P_____P_ SH061999 -13.23 126.31 127 4 -13.23 126.06 40 110 930 139 -13.19 126.14 TC 122 932 6 228
1999 SI WA 05:30:00 TS -13.38 125.99 110 935 bom 68 68 P_____O_____P_ SH061999 -13.37 126.13 125 4 -13.40 125.90 40 110 935 6.50 139 3 4 6 -13.36 125.93 TC 120 934 6 226
1999 SI WA 06:00:00 TS -13.41 125.95 68 55 O_____P_____O_ jtwc_sh SH061999 -13.40 126.10 125 4 -13.43 125.86 40 110 935 134 -13.40 125.90 TC 120 935 6 222
1999 SI WA 08:30:00 TS -13.58 125.80 110 935 bom 55 55 P_____O_____P_ SH061999 -13.59 125.93 125 4 -13.60 125.70 40 110 935 6.50 110 8 4 6 -13.55 125.77 TC 120 935 5 221
1999 SI WA 09:00:00 TS -13.61 125.77 55 46 P_____P_____P_ SH061999 -13.63 125.90 125 4 -13.63 125.68 40 108 935 110 -13.58 125.74 TC 120 935 5 212
1999 SI WA 11:30:00 TS -13.80 125.65 100 935 bom 46 46 P_____O_____P_ SH061999 -13.85 125.73 125 4 -13.80 125.60 40 100 935 6.00 110 7 3 6 -13.76 125.63 TC 120 935 5 210
1999 SI WA 12:00:00 TS -13.85 125.63 54 24 O_____P_____O_ jtwc_sh SH061999 -13.90 125.70 125 4 -13.84 125.59 40 100 936 108 -13.80 125.60 TC 120 935 7 210
1999 SI WA 14:30:00 TS -14.09 125.48 100 945 bom 24 24 P_____O_____P_ SH061999 -14.14 125.52 122 4 -14.10 125.50 40 100 945 6.00 99 7 3 6 -14.03 125.42 TC 113 941 7 212
1999 SI WA 15:00:00 TS -14.14 125.44 31 22 P_____P_____P_ SH061999 -14.19 125.49 122 4 -14.15 125.45 40 98 945 100 -14.09 125.39 TC 112 942 8 216
1999 SI WA 17:30:00 TS -14.40 125.25 90 950 bom 22 22 P_____O_____P_ SH061999 -14.45 125.33 120 4 -14.40 125.20 40 90 950 5.50 110 7 3 6 -14.35 125.22 TC 106 948 7 213
1999 SI WA 18:00:00 TS -14.45 125.23 22 0 O_____P_____O_ jtwc_sh SH061999 -14.50 125.30 120 4 -14.45 125.19 40 87 951 110 -14.40 125.20 TC 105 950 6 193
1999 SI WA 20:30:00 TS -14.71 125.18 75 960 bom 10 10 P_____O_____P_ SH061999 -14.79 125.19 117 4 -14.70 125.20 40 75 960 5.00 110 7 3 6 -14.64 125.13 TC 92 958 6 189
1999 SI WA 21:00:00 TS -14.76 125.16 0 0 P_____P_____P_ SH061999 -14.85 125.18 117 4 -14.74 125.19 40 73 961 108 -14.68 125.13 TC 90 960 7 191
1999 SI WA 23:30:00 TS -15.03 125.11 65 970 bom 10 0 P_____O_____P_ SH061999 -15.14 125.11 115 4 -15.00 125.10 40 65 970 4.50 99 3 6 -14.94 125.10 TC 77 968 7 192
1999 SI WA 1998-12-11 00:00:00 TS -15.09 125.09 0 0 O_____P_____O_ jtwc_sh SH061999 -15.20 125.10 115 4 -15.08 125.08 40 64 970 99 -15.00 125.10 TC 75 970 8 190
1999 SI WA 02:30:00 TS -15.43 125.03 60 975 bom 10 0 P_____O_____P_ SH061999 -15.46 125.05 104 3 -15.50 125.00 30 60 975 4.00 99 3 6 -15.34 125.05 TC 68 974 8 190
1999 SI WA 03:00:00 TS -15.49 125.03 0 0 P_____P_____P_ SH061999 -15.51 125.04 102 3 -15.56 124.99 30 58 975 100 -15.41 125.04 TC 67 975 7 188
1999 SI WA 05:30:00 TS -15.76 125.00 50 980 bom 0 0 P_____O_____P_ SH061999 -15.75 125.01 92 2 -15.80 125.00 30 50 980 110 3 6 -15.74 125.00 TC 61 979 7 184
1999 SI WA 06:00:00 TS -15.82 125.00 0 0 O_____P_____O_ jtwc_sh SH061999 -15.80 125.00 90 2 -15.85 125.00 30 49 980 108 -15.80 125.00 TC 60 980 6 0
1999 SI WA 08:30:00 TS -16.06 124.99 45 985 bom 0 0 P_____O_____P_ SH061999 -16.05 124.95 79 1 -16.10 125.00 30 45 985 99 3 6 -16.03 125.02 TC 51 984 6 0
1999 SI WA 09:00:00 TS -16.10 124.99 0 0 P_____P_____P_ SH061999 -16.10 124.94 77 1 -16.14 125.00 30 43 985 104 -16.07 125.02 TC 50 985 5 184
1999 SI WA 11:30:00 TS -16.30 124.97 35 990 bom 0 0 P_____O_____P_ SH061999 -16.35 124.90 67 1 -16.30 125.00 30 35 990 130 3 6 -16.26 125.01 TC 41 989 5 186
1999 SI WA 12:00:00 TS -16.34 124.97 0 0 O_____P_____O_ jtwc_sh SH061999 -16.40 124.90 65 1 -16.33 125.00 30 34 990 -16.30 125.00 TC 40 990 5 193
1999 SI WA 14:30:00 TS -16.56 124.91 30 995 bom 0 0 P_____O_____P_ SH061999 -16.66 124.90 56 0 -16.50 125.00 20 30 995 3 -16.52 124.85 TC 40 991 5 195
1999 SI WA 15:00:00 TS -16.61 124.90 0 0 P_____P_____P_ SH061999 -16.71 124.90 55 0 -16.55 124.98 20 29 995 -16.56 124.81 TC 40 992 6 203
1999 SI WA 18:00:00 TS -16.90 124.77 25 996 bom 0 0 O_____O_____I_ jtwc_sh SH061999 -17.00 124.90 45 0 -16.90 124.80 20 25 996 3 -16.80 124.60 TC 40 994 6 199
1999 SI WA 21:00:00 TS -17.13 124.71 0 0 P_____P_____P_ SH061999 -17.27 124.88 42 0 -17.12 124.74 20 25 -17.00 124.52 TC 40 996 4 193
1999 SI WA 1998-12-12 00:00:00 TS -17.33 124.67 25 bom 0 0 O_____O_____O_ jtwc_sh SH061999 -17.50 124.80 40 0 -17.30 124.70 20 25 3 -17.20 124.50 TC 40 998 4 198
1999 SI WA 03:00:00 TS -17.56 124.57 0 0 P_____P_____P_ SH061999 -17.67 124.61 37 0 -17.54 124.57 20 25 -17.46 124.53 TC 40 997 5 207
1999 SI WA 06:00:00 TS -17.77 124.43 25 bom 0 0 O_____O_____I_ jtwc_sh SH061999 -17.80 124.40 35 0 -17.80 124.40 20 25 3 -17.70 124.50 TC 40 997 5 215
1999 SI WA 09:00:00 TS -17.96 124.27 0 0 P_____P_____P_ SH061999 -17.95 124.28 35 0 -18.06 124.21 20 25 -17.86 124.30 TC 40 997 5 224
1999 SI WA 12:00:00 TS -18.13 124.07 25 bom 0 0 O_____O_____O_ jtwc_sh SH061999 -18.10 124.20 35 0 -18.30 124.00 20 25 3 -18.00 124.00 TC 40 997 5 228
1999 SI WA 15:00:00 TS -18.30 123.86 0 0 P_____P_____P_ SH061999 -18.25 124.14 37 0 -18.51 123.77 20 25 -18.15 123.66 TC 40 997 6 233
1999 SI WA 18:00:00 TS -18.47 123.60 25 bom 0 0 O_____O_____I_ jtwc_sh SH061999 -18.40 124.00 40 0 -18.70 123.50 20 25 3 -18.30 123.30 TC 40 997 7 240
1999 SI WA 21:00:00 TS -18.63 123.25 0 0 P_____P_____P_ SH061999 -18.57 123.69 40 0 -18.87 123.15 20 25 -18.47 122.91 TC 37 997 7 246
1999 SI WA 1998-12-13 00:00:00 TS -18.77 122.90 25 bom 0 0 O_____O_____O_ jtwc_sh SH061999 -18.70 123.30 40 0 -19.00 122.80 20 25 3 -18.60 122.60 TC 35 997 6 251
1999 SI WA 03:00:00 TS -18.83 122.66 0 0 P_____P_____P_ SH061999 -18.76 122.95 37 0 -19.06 122.53 20 25 -18.66 122.49 TC 35 5 257
1999 SI WA 06:00:00 TS -18.87 122.43 25 bom 0 0 O_____O_____O_ jtwc_sh SH061999 -18.80 122.60 35 0 -19.10 122.30 20 25 3 -18.70 122.40 TC 35 5 257
1999 SI WA 09:00:00 TS -18.95 122.13 0 0 P_____P_____P_ SH061999 -18.89 122.24 35 0 -19.15 122.05 20 25 -18.80 122.12 TC 35 6 254
1999 SI WA 12:00:00 TS -19.03 121.83 25 bom 0 0 O_____O_____O_ jtwc_sh SH061999 -19.00 121.90 35 0 -19.20 121.80 20 25 3 -18.90 121.80 TC 35 5 252
1999 SI WA 15:00:00 TS -19.11 121.58 0 0 P_____P_____P_ SH061999 -19.15 121.63 35 0 -19.24 121.55 20 25 -18.94 121.58 TC 32 5 249
1999 SI WA 18:00:00 TS -19.20 121.37 25 bom 0 0 O_____O_____O_ jtwc_sh SH061999 -19.30 121.40 35 0 -19.30 121.30 20 25 3 -19.00 121.40 TC 30 995 4 242
1999 SI WA 21:00:00 TS -19.32 121.17 10 10 P_____P_____P_ SH061999 -19.41 121.19 35 0 -19.40 121.04 20 25 -19.15 121.28 TC 30 995 4 238
1999 SI WA 1998-12-14 00:00:00 TS -19.43 120.97 25 bom 15 11 O_____O_____O_ jtwc_sh SH061999 -19.50 121.00 35 0 -19.50 120.80 20 25 3 -19.30 121.10 TC 30 995 5 247
1999 SI WA 03:00:00 TS -19.50 120.71 22 22 P_____P_____P_ SH061999 -19.60 120.82 35 0 -19.55 120.60 20 25 -19.36 120.72 TC 27 995 5 255
1999 SI WA 06:00:00 TS -19.57 120.43 25 bom 24 24 O_____O_____O_ jtwc_sh SH061999 -19.70 120.60 35 0 -19.60 120.40 20 25 3 -19.40 120.30 TC 25 995 6 255
1999 SI WA 09:00:00 TS -19.66 120.11 24 22 P_____P_____P_ SH061999 -19.80 120.24 35 0 -19.69 120.14 20 25 -19.48 119.96 TC 25 995 6 251
1999 SI WA 12:00:00 TS -19.77 119.83 25 bom 22 15 O_____O_____O_ jtwc_sh SH061999 -19.90 119.90 35 0 -19.80 119.90 20 25 3 -19.60 119.70 TC 25 995 5 242
1999 SI WA 15:00:00 TS -19.88 119.66 15 11 P_____P_____P_ SH061999 -20.00 119.75 35 0 -19.91 119.73 20 25 -19.74 119.51 TC 25 995 4 221
1999 SI WA 18:00:00 TS -20.04 119.58 25 bom 11 0 O_____O_____O_ jtwc_sh SH061999 -20.10 119.70 35 0 -20.00 119.60 20 25 3 -20.00 119.40 TC 25 995 3 202
1999 SI WA 21:00:00 TS -20.21 119.53 0 0 P_____P_____P_ SH061999 -20.16 119.65 35 0 -20.06 119.50 20 25 -20.45 119.34 TC 22 4 193
1999 SI WA 1998-12-15 00:00:00 TS -20.40 119.50 25 bom 0 0 O_____O_____O_ jtwc_sh SH061999 -20.30 119.60 35 0 -20.10 119.40 20 25 3 -21.00 119.30 TC 20 4 0
1999 SI WA 03:00:00 NR -20.60 119.51 0 0 P_____________ SH061999 -20.60 119.51 32 -1 20 TC 6 189
1999 SI WA 06:00:00 NR -21.00 119.40 0 O_____________ jtwc_sh SH061999 -21.00 119.40 30 -1 8 194